createdAt,value
2022-11-07T00:00:20.226Z,17.90
2022-11-07T00:02:49.716Z,17.30
2022-11-07T00:05:17.205Z,16.10
2022-11-07T00:07:45.128Z,19.02
2022-11-07T00:10:15.218Z,18.40
2022-11-07T00:12:44.703Z,16.40
2022-11-07T00:15:16.159Z,17.60
2022-11-07T00:17:46.096Z,14.25
2022-11-07T00:20:15.218Z,16.75
2022-11-07T00:22:44.397Z,16.73
2022-11-07T00:25:12.779Z,18.27
2022-11-07T00:27:42.655Z,19.83
2022-11-07T00:30:13.132Z,17.42
2022-11-07T00:32:41.861Z,15.85
2022-11-07T00:35:09.780Z,17.52
2022-11-07T00:37:37.505Z,16.55
2022-11-07T00:40:06.688Z,14.52
2022-11-07T00:42:34.735Z,15.48
2022-11-07T00:45:04.557Z,16.33
2022-11-07T00:47:33.436Z,16.33
2022-11-07T00:50:02.103Z,19.27
2022-11-07T00:52:31.326Z,21.62
2022-11-07T00:54:59.275Z,21.52
2022-11-07T00:57:29.994Z,18.55
2022-11-07T01:00:02.266Z,16.87
2022-11-07T01:02:32.815Z,17.20
2022-11-07T01:05:11.133Z,17.40
2022-11-07T01:07:50.029Z,17.80
2022-11-07T01:10:19.939Z,16.87
2022-11-07T01:12:49.480Z,16.20
2022-11-07T01:15:17.674Z,17.15
2022-11-07T01:17:47.823Z,19.23
2022-11-07T01:20:18.603Z,18.80
2022-11-07T01:22:48.484Z,17.62
2022-11-07T01:25:17.915Z,16.87
2022-11-07T01:27:48.767Z,17.33
2022-11-07T01:30:17.795Z,18.12
2022-11-07T01:32:46.510Z,14.40
2022-11-07T01:35:16.612Z,18.80
2022-11-07T01:37:45.109Z,14.87
2022-11-07T01:40:15.166Z,16.92
2022-11-07T01:42:44.857Z,14.18
2022-11-07T01:45:22.151Z,17.75
2022-11-07T01:47:51.269Z,18.17
2022-11-07T01:50:24.692Z,16.62
2022-11-07T01:52:57.213Z,16.25
2022-11-07T01:55:30.230Z,15.98
2022-11-07T01:58:03.547Z,16.77
2022-11-07T02:00:34.559Z,15.25
2022-11-07T02:03:09.194Z,18.75
2022-11-07T02:05:44.446Z,18.73
2022-11-07T02:08:14.282Z,14.90
2022-11-07T02:10:43.338Z,16.62
2022-11-07T02:13:19.347Z,16.17
2022-11-07T02:15:47.765Z,19.00
2022-11-07T02:18:18.162Z,15.50
2022-11-07T02:20:47.012Z,15.20
2022-11-07T02:23:26.661Z,17.00
2022-11-07T02:25:56.700Z,14.68
2022-11-07T02:28:29.962Z,15.55
2022-11-07T02:30:59.794Z,15.45
2022-11-07T02:33:29.351Z,19.30
2022-11-07T02:36:00.055Z,19.75
2022-11-07T02:38:37.479Z,17.62
2022-11-07T02:41:10.134Z,14.87
2022-11-07T02:43:43.158Z,25.37
2022-11-07T02:46:12.311Z,16.87
2022-11-07T02:48:44.090Z,18.65
2022-11-07T02:51:14.873Z,17.25
2022-11-07T02:53:43.748Z,17.45
2022-11-07T02:56:12.703Z,18.35
2022-11-07T02:58:41.446Z,17.27
2022-11-07T03:01:12.351Z,20.52
2022-11-07T03:03:46.418Z,18.60
2022-11-07T03:06:20.265Z,23.70
2022-11-07T03:08:48.534Z,25.83
2022-11-07T03:11:21.852Z,23.77
2022-11-07T03:13:52.009Z,25.90
2022-11-07T03:16:21.880Z,21.67
2022-11-07T03:18:49.922Z,26.87
2022-11-07T03:21:19.561Z,26.58
2022-11-07T03:23:49.243Z,24.15
2022-11-07T03:26:18.175Z,26.60
2022-11-07T03:28:46.382Z,24.23
2022-11-07T03:31:17.017Z,24.20
2022-11-07T03:33:45.233Z,26.20
2022-11-07T03:36:14.111Z,25.45
2022-11-07T03:38:44.031Z,27.67
2022-11-07T03:41:17.440Z,26.40
2022-11-07T03:43:47.547Z,28.73
2022-11-07T03:46:17.743Z,24.02
2022-11-07T03:48:45.578Z,26.77
2022-11-07T03:51:16.723Z,27.60
2022-11-07T03:53:46.116Z,30.98
2022-11-07T03:56:15.940Z,27.85
2022-11-07T03:58:44.809Z,35.28
2022-11-07T04:01:13.499Z,25.15
2022-11-07T04:03:42.910Z,25.40
2022-11-07T04:06:13.757Z,25.45
2022-11-07T04:08:43.047Z,31.08
2022-11-07T04:11:32.450Z,33.63
2022-11-07T04:14:20.491Z,35.17
2022-11-07T04:17:07.448Z,35.55
2022-11-07T04:19:37.068Z,35.85
2022-11-07T04:22:04.548Z,31.10
2022-11-07T04:24:33.521Z,32.78
2022-11-07T04:27:22.006Z,30.08
2022-11-07T04:29:51.321Z,22.23
2022-11-07T04:32:21.222Z,22.20
2022-11-07T04:34:53.151Z,21.65
2022-11-07T04:37:21.032Z,22.20
2022-11-07T04:39:49.387Z,20.27
2022-11-07T04:42:16.888Z,21.87
2022-11-07T04:44:47.466Z,22.62
2022-11-07T04:47:16.494Z,20.95
2022-11-07T04:49:46.237Z,21.77
2022-11-07T04:52:14.632Z,21.37
2022-11-07T04:54:44.119Z,23.33
2022-11-07T04:57:13.774Z,24.12
2022-11-07T04:59:42.786Z,22.23
2022-11-07T05:02:13.292Z,26.75
2022-11-07T05:04:42.664Z,29.70
2022-11-07T05:07:12.243Z,32.50
2022-11-07T05:09:41.009Z,38.92
2022-11-07T05:12:10.561Z,32.30
2022-11-07T05:14:40.789Z,31.67
2022-11-07T05:17:15.227Z,36.58
2022-11-07T05:19:45.197Z,32.42
2022-11-07T05:22:33.068Z,33.03
2022-11-07T05:25:04.009Z,30.85
2022-11-07T05:27:32.262Z,28.85
2022-11-07T05:30:01.631Z,30.60
2022-11-07T05:32:30.037Z,34.40
2022-11-07T05:34:59.518Z,27.70
2022-11-07T05:37:29.129Z,25.75
2022-11-07T05:40:00.449Z,23.87
2022-11-07T05:42:30.727Z,26.62
2022-11-07T05:45:01.791Z,30.67
2022-11-07T05:47:30.944Z,33.60
2022-11-07T05:50:01.783Z,29.30
2022-11-07T05:52:32.849Z,27.80
2022-11-07T05:55:01.991Z,25.80
2022-11-07T05:57:32.349Z,28.08
2022-11-07T06:00:03.601Z,33.78
2022-11-07T06:02:42.560Z,29.37
2022-11-07T06:05:13.551Z,36.10
2022-11-07T06:07:43.908Z,35.95
2022-11-07T06:10:14.055Z,37.60
2022-11-07T06:12:42.860Z,32.95
2022-11-07T06:15:12.239Z,39.28
2022-11-07T06:17:42.548Z,43.42
2022-11-07T06:20:12.463Z,41.47
2022-11-07T06:22:42.448Z,44.90
2022-11-07T06:25:10.957Z,40.63
2022-11-07T06:27:38.975Z,41.95
2022-11-07T06:30:10.528Z,40.80
2022-11-07T06:32:41.235Z,39.70
2022-11-07T06:35:12.638Z,36.50
2022-11-07T06:37:42.687Z,40.15
2022-11-07T06:40:15.344Z,44.60
2022-11-07T06:42:43.047Z,39.47
2022-11-07T06:45:13.222Z,46.97
2022-11-07T06:47:42.836Z,50.65
2022-11-07T06:50:11.903Z,44.05
2022-11-07T06:52:40.844Z,39.03
2022-11-07T06:55:10.949Z,44.15
2022-11-07T06:57:38.812Z,37.40
2022-11-07T07:00:11.082Z,37.75
2022-11-07T07:05:31.011Z,28.70
2022-11-07T07:08:04.453Z,36.10
2022-11-07T07:10:40.826Z,34.90
2022-11-07T07:15:50.553Z,36.80
2022-11-07T07:18:21.416Z,34.97
2022-11-07T07:20:51.942Z,35.97
2022-11-07T07:23:22.309Z,35.92
2022-11-07T07:25:52.918Z,35.85
2022-11-07T07:28:22.341Z,33.92
2022-11-07T07:30:52.275Z,35.05
2022-11-07T07:33:21.476Z,32.67
2022-11-07T07:35:50.607Z,33.88
2022-11-07T07:38:20.800Z,34.97
2022-11-07T07:40:49.648Z,28.52
2022-11-07T07:43:18.782Z,34.17
2022-11-07T07:45:48.056Z,36.15
2022-11-07T07:48:18.274Z,30.83
2022-11-07T07:50:52.035Z,34.17
2022-11-07T07:53:22.353Z,33.55
2022-11-07T07:55:58.553Z,29.98
2022-11-07T07:58:28.861Z,33.78
2022-11-07T08:00:58.971Z,31.92
2022-11-07T08:03:32.068Z,31.25
2022-11-07T08:06:05.553Z,32.60
2022-11-07T08:08:38.146Z,32.50
2022-11-07T08:11:09.148Z,34.42
2022-11-07T08:13:40.698Z,32.90
2022-11-07T08:16:10.669Z,24.63
2022-11-07T08:18:41.849Z,31.25
2022-11-07T08:21:12.583Z,27.40
2022-11-07T08:23:42.330Z,26.05
2022-11-07T08:26:10.619Z,27.52
2022-11-07T08:28:39.723Z,25.92
2022-11-07T08:31:15.661Z,23.58
2022-11-07T08:33:45.765Z,24.87
2022-11-07T08:36:15.655Z,26.17
2022-11-07T08:38:44.552Z,27.48
2022-11-07T08:41:15.402Z,29.33
2022-11-07T08:43:49.565Z,28.12
2022-11-07T08:46:19.143Z,24.75
2022-11-07T08:48:48.902Z,25.55
2022-11-07T08:51:18.503Z,28.48
2022-11-07T08:53:46.613Z,27.05
2022-11-07T08:56:16.419Z,26.17
2022-11-07T08:58:46.558Z,24.20
2022-11-07T09:01:16.161Z,28.62
2022-11-07T09:03:53.245Z,25.67
2022-11-07T09:06:25.959Z,28.38
2022-11-07T09:08:56.895Z,27.15
2022-11-07T09:11:28.537Z,26.15
2022-11-07T09:13:59.453Z,26.58
2022-11-07T09:16:29.002Z,32.13
2022-11-07T09:18:57.500Z,30.10
2022-11-07T09:21:29.656Z,24.05
2022-11-07T09:23:58.501Z,28.73
2022-11-07T09:26:28.483Z,29.40
2022-11-07T09:29:09.274Z,28.92
2022-11-07T09:31:40.578Z,27.70
2022-11-07T09:34:10.871Z,29.92
2022-11-07T09:36:40.665Z,24.70
2022-11-07T09:39:09.591Z,25.42
2022-11-07T09:42:06.151Z,27.80
2022-11-07T09:45:08.974Z,28.38
2022-11-07T09:47:41.888Z,25.88
2022-11-07T09:50:17.243Z,25.08
2022-11-07T09:53:02.896Z,28.92
2022-11-07T09:55:42.286Z,27.20
2022-11-07T09:58:35.948Z,24.80
2022-11-07T10:01:12.269Z,25.85
2022-11-07T10:04:10.209Z,25.10
2022-11-07T10:06:39.328Z,26.20
2022-11-07T10:09:19.154Z,29.25
2022-11-07T10:11:46.970Z,31.02
2022-11-07T10:14:56.833Z,22.83
2022-11-07T10:17:57.934Z,24.02
2022-11-07T10:20:43.458Z,24.33
2022-11-07T10:23:15.802Z,23.87
2022-11-07T10:26:01.138Z,29.42
2022-11-07T10:28:32.376Z,24.37
2022-11-07T10:31:07.816Z,24.08
2022-11-07T10:33:54.602Z,25.02
2022-11-07T10:36:30.554Z,23.77
2022-11-07T10:39:03.488Z,24.75
2022-11-07T10:41:34.535Z,26.50
2022-11-07T10:44:10.619Z,26.15
2022-11-07T10:46:43.495Z,25.90
2022-11-07T10:49:26.560Z,29.63
2022-11-07T10:52:10.876Z,26.30
2022-11-07T10:54:41.439Z,22.23
2022-11-07T10:57:18.873Z,26.33
2022-11-07T10:59:56.822Z,25.92
2022-11-07T11:02:25.820Z,23.42
2022-11-07T11:04:56.581Z,28.23
2022-11-07T11:07:28.698Z,25.10
2022-11-07T11:10:00.174Z,25.00
2022-11-07T11:12:35.054Z,22.23
2022-11-07T11:15:31.387Z,24.30
2022-11-07T11:18:20.006Z,24.85
2022-11-07T11:21:07.511Z,23.77
2022-11-07T11:23:41.793Z,23.42
2022-11-07T11:27:07.367Z,26.40
2022-11-07T11:29:43.315Z,23.85
2022-11-07T11:32:22.616Z,25.23
2022-11-07T11:35:00.383Z,25.55
2022-11-07T11:37:29.275Z,25.12
2022-11-07T11:39:57.879Z,25.90
2022-11-07T11:42:40.488Z,32.03
2022-11-07T11:45:21.697Z,26.45
2022-11-07T11:48:03.817Z,23.02
2022-11-07T11:50:47.445Z,21.55
2022-11-07T11:53:22.342Z,25.12
2022-11-07T11:56:01.540Z,22.48
2022-11-07T11:59:12.544Z,25.12
2022-11-07T12:02:16.511Z,21.67
2022-11-07T12:05:16.918Z,12.27
2022-11-07T12:08:25.586Z,12.40
2022-11-07T12:11:22.150Z,10.00
2022-11-07T12:14:29.400Z,13.82
2022-11-07T12:17:12.118Z,13.68
2022-11-07T12:20:01.163Z,13.60
2022-11-07T12:22:48.466Z,10.32
2022-11-07T12:25:50.874Z,10.18
2022-11-07T12:28:39.170Z,13.05
2022-11-07T12:31:48.795Z,12.43
2022-11-07T12:35:13.761Z,12.23
2022-11-07T12:37:52.693Z,9.90
2022-11-07T12:40:36.761Z,10.52
2022-11-07T12:43:32.091Z,12.02
2022-11-07T12:46:02.314Z,8.48
2022-11-07T12:48:36.573Z,6.80
2022-11-07T12:51:26.029Z,10.75
2022-11-07T12:54:16.181Z,6.80
2022-11-07T12:57:21.223Z,11.20
2022-11-07T13:00:01.245Z,8.07
2022-11-07T13:02:52.523Z,11.10
2022-11-07T13:05:53.533Z,8.70
2022-11-07T13:08:40.869Z,7.60
2022-11-07T13:11:41.062Z,6.20
2022-11-07T13:14:23.968Z,8.70
2022-11-07T13:17:04.436Z,8.82
2022-11-07T13:19:37.300Z,7.75
2022-11-07T13:22:15.260Z,7.12
2022-11-07T13:25:06.093Z,7.90
2022-11-07T13:27:39.510Z,7.10
2022-11-07T13:30:12.033Z,6.75
2022-11-07T13:32:43.328Z,6.22
2022-11-07T13:35:30.370Z,7.20
2022-11-07T13:38:08.607Z,4.82
2022-11-07T13:40:44.827Z,6.00
2022-11-07T13:43:19.712Z,5.25
2022-11-07T13:45:55.515Z,6.65
2022-11-07T13:48:50.652Z,6.37
2022-11-07T13:51:35.712Z,6.45
2022-11-07T13:54:12.265Z,7.40
2022-11-07T13:57:03.708Z,6.65
2022-11-07T13:59:47.269Z,5.35
2022-11-07T14:02:32.704Z,5.50
2022-11-07T14:05:16.273Z,5.28
2022-11-07T14:07:55.198Z,5.40
2022-11-07T14:10:41.561Z,5.28
2022-11-07T14:13:13.135Z,5.95
2022-11-07T14:15:50.478Z,5.72
2022-11-07T14:18:23.741Z,5.43
2022-11-07T14:20:56.999Z,6.82
2022-11-07T14:23:30.334Z,6.93
2022-11-07T14:26:05.814Z,6.10
2022-11-07T14:28:37.668Z,6.70
2022-11-07T14:31:12.828Z,7.45
2022-11-07T14:33:51.460Z,7.80
2022-11-07T14:36:21.177Z,8.18
2022-11-07T14:39:04.473Z,6.25
2022-11-07T14:41:38.241Z,8.68
2022-11-07T14:44:07.027Z,5.60
2022-11-07T14:46:38.153Z,8.50
2022-11-07T14:49:07.236Z,4.40
2022-11-07T14:51:38.741Z,4.75
2022-11-07T14:54:18.868Z,4.55
2022-11-07T14:57:00.305Z,4.93
2022-11-07T14:59:34.286Z,5.90
2022-11-07T15:02:23.237Z,7.10
2022-11-07T15:04:55.552Z,13.25
2022-11-07T15:07:38.207Z,20.62
2022-11-07T15:10:24.756Z,8.70
2022-11-07T15:15:37.353Z,6.85
2022-11-07T15:18:07.699Z,6.43
2022-11-07T15:20:46.418Z,5.68
2022-11-07T15:23:20.478Z,9.15
2022-11-07T15:26:05.302Z,11.90
2022-11-07T15:28:49.562Z,12.70
2022-11-07T15:31:33.896Z,14.05
2022-11-07T15:34:04.586Z,11.90
2022-11-07T15:36:36.215Z,9.80
2022-11-07T15:39:14.402Z,9.95
2022-11-07T15:41:45.310Z,13.55
2022-11-07T15:44:17.498Z,8.85
2022-11-07T15:46:47.903Z,11.77
2022-11-07T15:49:28.755Z,12.57
2022-11-07T15:51:59.463Z,24.83
2022-11-07T15:54:29.107Z,15.20
2022-11-07T15:57:01.748Z,15.60
2022-11-07T15:59:34.666Z,13.68
2022-11-07T16:02:07.950Z,13.60
2022-11-07T16:04:39.714Z,16.20
2022-11-07T16:07:19.373Z,20.33
2022-11-07T16:09:48.989Z,22.80
2022-11-07T16:12:19.061Z,22.45
2022-11-07T16:14:47.726Z,22.55
2022-11-07T16:17:18.053Z,35.45
2022-11-07T16:19:46.276Z,30.48
2022-11-07T16:22:16.150Z,35.67
2022-11-07T16:24:46.917Z,23.55
2022-11-07T16:27:17.893Z,20.95
2022-11-07T16:29:51.349Z,19.33
2022-11-07T16:32:21.120Z,20.65
2022-11-07T16:34:48.951Z,16.17
2022-11-07T16:37:19.662Z,15.95
2022-11-07T16:39:49.089Z,25.60
2022-11-07T16:42:19.141Z,21.15
2022-11-07T16:44:49.906Z,15.40
2022-11-07T16:47:20.152Z,19.12
2022-11-07T16:49:53.529Z,16.30
2022-11-07T16:52:28.391Z,19.70
2022-11-07T16:55:00.423Z,19.27
2022-11-07T16:57:29.015Z,24.00
2022-11-07T16:59:59.182Z,27.95
2022-11-07T17:02:34.448Z,55.40
2022-11-07T17:05:07.399Z,35.03
2022-11-07T17:07:35.307Z,33.50
2022-11-07T17:10:07.552Z,51.37
2022-11-07T17:12:37.430Z,75.75
2022-11-07T17:15:11.627Z,50.30
2022-11-07T17:17:41.369Z,46.95
2022-11-07T17:20:49.001Z,33.50
2022-11-07T17:23:12.796Z,33.13
2022-11-07T17:25:55.120Z,38.92
2022-11-07T17:28:24.582Z,38.17
2022-11-07T17:30:53.740Z,30.23
2022-11-07T17:33:25.027Z,36.90
2022-11-07T17:35:56.960Z,31.10
2022-11-07T17:38:27.694Z,29.20
2022-11-07T17:41:17.781Z,29.83
2022-11-07T17:43:49.476Z,27.00
2022-11-07T17:46:30.670Z,23.30
2022-11-07T17:49:07.431Z,22.52
2022-11-07T17:51:36.650Z,22.80
2022-11-07T17:54:08.559Z,22.77
2022-11-07T17:56:38.611Z,16.23
2022-11-07T17:59:13.567Z,13.55
2022-11-07T18:01:44.395Z,18.30
2022-11-07T18:04:14.262Z,18.27
2022-11-07T18:06:44.753Z,21.62
2022-11-07T18:09:19.351Z,17.42
2022-11-07T18:11:51.467Z,32.10
2022-11-07T18:14:22.655Z,31.98
2022-11-07T18:16:52.983Z,34.58
2022-11-07T18:19:23.466Z,41.63
2022-11-07T18:21:54.219Z,39.13
2022-11-07T18:24:25.719Z,28.92
2022-11-07T18:26:55.824Z,25.60
2022-11-07T18:29:27.475Z,30.80
2022-11-07T18:31:57.718Z,23.87
2022-11-07T18:34:30.316Z,18.62
2022-11-07T18:37:00.527Z,17.92
2022-11-07T18:39:31.003Z,18.00
2022-11-07T18:42:00.925Z,21.17
2022-11-07T18:44:33.988Z,24.63
2022-11-07T18:47:06.968Z,22.55
2022-11-07T18:49:37.707Z,26.10
2022-11-07T18:52:06.484Z,22.55
2022-11-07T18:54:36.582Z,25.23
2022-11-07T18:57:06.238Z,34.65
2022-11-07T18:59:36.354Z,34.90
2022-11-07T19:02:05.931Z,27.87
2022-11-07T19:04:34.826Z,24.20
2022-11-07T19:07:04.011Z,24.87
2022-11-07T19:09:34.646Z,26.62
2022-11-07T19:12:06.674Z,27.15
2022-11-07T19:14:37.254Z,27.75
2022-11-07T19:17:06.355Z,19.30
2022-11-07T19:19:37.089Z,21.33
2022-11-07T19:22:07.147Z,24.42
2022-11-07T19:24:40.471Z,21.98
2022-11-07T19:27:09.345Z,19.70
2022-11-07T19:29:39.483Z,20.45
2022-11-07T19:32:09.408Z,19.58
2022-11-07T19:34:39.834Z,21.37
2022-11-07T19:37:07.788Z,22.42
2022-11-07T19:43:54.749Z,19.00
2022-11-07T19:46:25.255Z,17.77
2022-11-07T19:48:58.430Z,24.10
2022-11-07T19:51:26.933Z,23.10
2022-11-07T19:53:58.609Z,23.12
2022-11-07T19:56:30.125Z,23.05
2022-11-07T19:58:59.497Z,25.33
2022-11-07T20:01:30.344Z,27.10
2022-11-07T20:04:01.225Z,25.55
2022-11-07T20:06:35.980Z,24.20
2022-11-07T20:09:07.716Z,20.92
2022-11-07T20:11:36.700Z,22.15
2022-11-07T20:14:05.710Z,21.12
2022-11-07T20:16:34.358Z,18.92
2022-11-07T20:19:03.047Z,17.62
2022-11-07T20:21:31.608Z,15.85
2022-11-07T20:24:00.088Z,17.87
2022-11-07T20:26:29.525Z,20.00
2022-11-07T20:28:58.412Z,20.08
2022-11-07T20:31:42.560Z,18.83
2022-11-07T20:34:14.123Z,20.30
2022-11-07T20:36:44.432Z,16.92
2022-11-07T20:39:16.676Z,17.35
2022-11-07T20:41:44.735Z,16.70
2022-11-07T20:44:14.989Z,16.42
2022-11-07T20:46:45.395Z,17.62
2022-11-07T20:49:16.023Z,20.05
2022-11-07T20:51:44.470Z,18.65
2022-11-07T20:54:14.635Z,18.42
2022-11-07T20:56:43.984Z,17.10
2022-11-07T20:59:12.419Z,17.02
2022-11-07T21:01:40.300Z,17.37
2022-11-07T21:04:14.869Z,16.17
2022-11-07T21:06:43.133Z,17.58
2022-11-07T21:09:11.059Z,15.85
2022-11-07T21:11:39.363Z,16.50
2022-11-07T21:14:07.266Z,12.68
2022-11-07T21:16:35.301Z,18.48
2022-11-07T21:19:05.559Z,17.45
2022-11-07T21:21:34.039Z,13.88
2022-11-07T21:24:03.144Z,15.73
2022-11-07T21:26:36.990Z,17.73
2022-11-07T21:29:06.745Z,14.73
2022-11-07T21:31:37.514Z,14.02
2022-11-07T21:34:08.064Z,14.60
2022-11-07T21:36:35.583Z,15.13
2022-11-07T21:39:03.755Z,15.13
2022-11-07T21:41:31.907Z,12.77
2022-11-07T21:43:59.683Z,14.18
2022-11-07T21:46:29.444Z,16.67
2022-11-07T21:48:57.685Z,16.48
2022-11-07T21:51:30.097Z,17.65
2022-11-07T21:53:58.874Z,19.08
2022-11-07T21:56:28.729Z,17.87
2022-11-07T21:58:58.900Z,15.85
2022-11-07T22:01:27.773Z,18.87
2022-11-07T22:04:12.457Z,13.23
2022-11-07T22:06:43.578Z,16.95
2022-11-07T22:09:15.365Z,14.82
2022-11-07T22:11:43.275Z,15.63
2022-11-07T22:14:21.525Z,16.05
2022-11-07T22:16:50.542Z,19.17
2022-11-07T22:19:18.509Z,17.40
2022-11-07T22:21:46.196Z,17.87
2022-11-07T22:24:13.525Z,18.83
2022-11-07T22:26:41.238Z,17.17
2022-11-07T22:29:08.847Z,19.55
2022-11-07T22:31:36.408Z,20.75
2022-11-07T22:34:04.046Z,16.23
2022-11-07T22:36:31.864Z,17.50
2022-11-07T22:38:59.672Z,17.50
2022-11-07T22:41:27.962Z,18.30
2022-11-07T22:43:56.119Z,16.27
2022-11-07T22:46:26.471Z,16.30
2022-11-07T22:48:54.686Z,17.50
2022-11-07T22:51:28.345Z,18.95
2022-11-07T22:54:02.068Z,16.83
2022-11-07T22:56:30.412Z,18.02
2022-11-07T22:58:58.259Z,20.25
2022-11-07T23:01:28.183Z,18.00
2022-11-07T23:03:57.008Z,18.67
2022-11-07T23:06:26.305Z,21.52
2022-11-07T23:08:54.188Z,18.62
2022-11-07T23:14:13.504Z,20.88
2022-11-07T23:16:44.956Z,21.35
2022-11-07T23:19:14.418Z,21.92
2022-11-07T23:21:42.675Z,22.80
2022-11-07T23:24:10.511Z,22.33
2022-11-07T23:26:38.433Z,22.20
2022-11-07T23:29:11.442Z,18.12
2022-11-07T23:31:40.422Z,22.08
2022-11-07T23:34:08.773Z,23.70
2022-11-07T23:36:37.219Z,23.62
2022-11-07T23:39:07.578Z,21.37
2022-11-07T23:41:36.268Z,24.85
2022-11-07T23:44:04.931Z,24.02
2022-11-07T23:46:52.647Z,19.80
2022-11-07T23:49:39.413Z,21.08
2022-11-07T23:52:08.354Z,21.60
2022-11-07T23:54:55.099Z,20.83
2022-11-07T23:57:24.335Z,21.23
